LQBK

Banja Luka International Airport

Banja Luka, Bosnia and Herzegovina
TAF LQBK 162300Z 1700/1724 20007KT CAVOK TX15/1714Z TN00/1700Z PROB40 TEMPO 1710/1724 24012KT
Issued Valid From Valid To
Jan-16 @ 23:00 UTC
(6 hours ago)
Jan-17 @ 00:00 UTC
(5 hours ago)
Jan-18 @ 00:00 UTC
(in 19 hours)
Jan-17 @ 00:00 to Jan-18 @ 00:00
TAF LQBK 162300Z 1700/1724 20007KT CAVOK TX15/1714Z TN00/1700Z
Wind Visibility Clouds
200° at 7 knots 10,000+ meters
  • No significant clouds
Temporary  (Probability 40%) Jan-17 @ 10:00 to Jan-18 @ 00:00
PROB40 TEMPO 1710/1724 24012KT
Wind
240° at 12 knots
TAF LQBK 162300Z 1700/1724 20007KT CAVOK TX15/1714Z TN00/1700Z PROB40 TEMPO 1710/1724 24012KT
Issued Jan-16 @ 23:00 UTC
(6 hours ago)
Valid From Jan-17 @ 00:00 UTC
(5 hours ago)
Valid To Jan-18 @ 00:00 UTC
(in 19 hours)
Jan-17 @ 00:00 - Jan-18 @ 00:00
Wind Visibility
200° at 7 knots 10,000+ meters
Clouds
  • No significant clouds
Probability 40% Temporary Jan-17 @ 10:00 - Jan-18 @ 00:00
Wind
240° at 12 knots